sensor_id;sensor_type;location;lat;lon;timestamp;pressure;altitude;pressure_sealevel;temperature;humidity
79481;BME280;68944;48.262;14.208;2023-08-30T18:12:23;97614.59;;;18.90;62.16
79481;BME280;68944;48.262;14.208;2023-08-30T18:14:49;97621.50;;;17.00;71.11
79481;BME280;68944;48.262;14.208;2023-08-30T18:17:16;97630.16;;;16.46;74.51
79481;BME280;68944;48.262;14.208;2023-08-30T18:19:42;97620.09;;;16.22;76.40
79481;BME280;68944;48.262;14.208;2023-08-30T18:22:07;97616.16;;;16.09;77.65
79481;BME280;68944;48.262;14.208;2023-08-30T18:24:33;97619.91;;;15.92;79.08
79481;BME280;68944;48.262;14.208;2023-08-30T18:27:01;97621.53;;;15.83;80.66
79481;BME280;68944;48.262;14.208;2023-08-30T18:29:26;97621.31;;;15.74;81.88
79481;BME280;68944;48.262;14.208;2023-08-30T18:31:53;97622.13;;;15.64;82.93
79481;BME280;68944;48.262;14.208;2023-08-30T18:34:19;97630.41;;;15.57;83.35
79481;BME280;68944;48.262;14.208;2023-08-30T18:36:45;97631.22;;;15.52;84.29
79481;BME280;68944;48.262;14.208;2023-08-30T18:39:11;97633.63;;;15.49;85.09
79481;BME280;68944;48.262;14.208;2023-08-30T18:41:38;97638.16;;;15.48;85.19
79481;BME280;68944;48.262;14.208;2023-08-30T18:44:04;97631.75;;;15.44;85.69
79481;BME280;68944;48.262;14.208;2023-08-30T18:46:30;97638.69;;;15.45;85.72
79481;BME280;68944;48.262;14.208;2023-08-30T18:48:56;97632.00;;;15.42;85.94
79481;BME280;68944;48.262;14.208;2023-08-30T18:51:21;97632.00;;;15.42;86.73
79481;BME280;68944;48.262;14.208;2023-08-30T18:53:48;97633.88;;;15.42;87.22
79481;BME280;68944;48.262;14.208;2023-08-30T18:56:14;97632.28;;;15.41;87.77
79481;BME280;68944;48.262;14.208;2023-08-30T18:58:43;97634.16;;;15.35;88.18
79481;BME280;68944;48.262;14.208;2023-08-30T19:01:11;97639.50;;;15.30;89.21
79481;BME280;68944;48.262;14.208;2023-08-30T19:03:37;97635.50;;;15.32;89.65
79481;BME280;68944;48.262;14.208;2023-08-30T19:06:03;97634.97;;;15.30;89.81
79481;BME280;68944;48.262;14.208;2023-08-30T19:08:30;97632.28;;;15.30;90.29
79481;BME280;68944;48.262;14.208;2023-08-30T19:10:56;97641.38;;;15.29;90.36
79481;BME280;68944;48.262;14.208;2023-08-30T19:13:22;97640.56;;;15.23;91.03
79481;BME280;68944;48.262;14.208;2023-08-30T19:15:47;97642.44;;;15.18;91.27
79481;BME280;68944;48.262;14.208;2023-08-30T19:18:13;97645.09;;;15.18;91.43
79481;BME280;68944;48.262;14.208;2023-08-30T19:20:39;97650.72;;;15.16;91.89
79481;BME280;68944;48.262;14.208;2023-08-30T19:23:04;97654.19;;;15.11;91.68
79481;BME280;68944;48.262;14.208;2023-08-30T19:25:30;97655.78;;;15.12;91.67
79481;BME280;68944;48.262;14.208;2023-08-30T19:27:56;97653.09;;;15.12;92.14
79481;BME280;68944;48.262;14.208;2023-08-30T19:30:25;97651.53;;;15.11;91.68
79481;BME280;68944;48.262;14.208;2023-08-30T19:32:50;97648.31;;;15.15;91.73
79481;BME280;68944;48.262;14.208;2023-08-30T19:35:16;97648.84;;;15.17;91.99
79481;BME280;68944;48.262;14.208;2023-08-30T19:37:41;97644.03;;;15.24;92.17
79481;BME280;68944;48.262;14.208;2023-08-30T19:40:08;97647.78;;;15.18;91.65
79481;BME280;68944;48.262;14.208;2023-08-30T19:42:33;97648.31;;;15.15;92.43
79481;BME280;68944;48.262;14.208;2023-08-30T19:44:59;97645.13;;;15.23;92.18
79481;BME280;68944;48.262;14.208;2023-08-30T19:47:32;97649.38;;;15.19;92.48
79481;BME280;68944;48.262;14.208;2023-08-30T19:49:58;97651.78;;;15.20;92.02
79481;BME280;68944;48.262;14.208;2023-08-30T19:52:24;97648.31;;;15.25;91.44
79481;BME280;68944;48.262;14.208;2023-08-30T19:54:50;97646.69;;;15.24;91.83
79481;BME280;68944;48.262;14.208;2023-08-30T19:57:17;97653.66;;;15.25;91.70
79481;BME280;68944;48.262;14.208;2023-08-30T19:59:43;97652.84;;;15.19;92.50
79481;BME280;68944;48.262;14.208;2023-08-30T20:02:09;97660.59;;;15.16;92.78
79481;BME280;68944;48.262;14.208;2023-08-30T20:04:36;97666.72;;;15.06;93.63
79481;BME280;68944;48.262;14.208;2023-08-30T20:07:02;97670.16;;;15.01;94.34
79481;BME280;68944;48.262;14.208;2023-08-30T20:09:28;97667.78;;;14.99;95.65
79481;BME280;68944;48.262;14.208;2023-08-30T20:11:55;97670.44;;;14.94;96.73
79481;BME280;68944;48.262;14.208;2023-08-30T20:14:20;97662.69;;;14.93;97.58
79481;BME280;68944;48.262;14.208;2023-08-30T20:16:46;97674.16;;;14.93;98.25
79481;BME280;68944;48.262;14.208;2023-08-30T20:19:16;97668.56;;;15.05;98.36
79481;BME280;68944;48.262;14.208;2023-08-30T20:21:45;97667.50;;;15.01;98.26
79481;BME280;68944;48.262;14.208;2023-08-30T20:24:12;97660.31;;;15.01;98.24
79481;BME280;68944;48.262;14.208;2023-08-30T20:26:37;97667.25;;;14.97;98.67
79481;BME280;68944;48.262;14.208;2023-08-30T20:29:04;97673.38;;;14.93;99.33
79481;BME280;68944;48.262;14.208;2023-08-30T20:31:30;97673.34;;;14.87;100.00
79481;BME280;68944;48.262;14.208;2023-08-30T20:33:56;97679.16;;;14.84;100.00
79481;BME280;68944;48.262;14.208;2023-08-30T20:36:23;97668.75;;;14.77;100.00
79481;BME280;68944;48.262;14.208;2023-08-30T20:38:48;97681.84;;;14.84;100.00
79481;BME280;68944;48.262;14.208;2023-08-30T20:41:14;97673.84;;;14.79;100.00
79481;BME280;68944;48.262;14.208;2023-08-30T20:43:40;97678.09;;;14.80;100.00
79481;BME280;68944;48.262;14.208;2023-08-30T20:46:05;97675.44;;;14.70;100.00
79481;BME280;68944;48.262;14.208;2023-08-30T20:48:31;97676.75;;;14.77;100.00
79481;BME280;68944;48.262;14.208;2023-08-30T20:50:59;97671.69;;;14.71;100.00
79481;BME280;68944;48.262;14.208;2023-08-30T20:53:38;97676.75;;;14.67;100.00
79481;BME280;68944;48.262;14.208;2023-08-30T20:56:10;97671.69;;;14.71;100.00
79481;BME280;68944;48.262;14.208;2023-08-30T20:58:44;97668.50;;;14.74;100.00
79481;BME280;68944;48.262;14.208;2023-08-30T21:01:11;97674.63;;;14.74;100.00
79481;BME280;68944;48.262;14.208;2023-08-30T21:03:37;97680.75;;;14.75;100.00
79481;BME280;68944;48.262;14.208;2023-08-30T21:06:03;97684.50;;;14.74;100.00
79481;BME280;68944;48.262;14.208;2023-08-30T21:08:29;97683.16;;;14.71;100.00
79481;BME280;68944;48.262;14.208;2023-08-30T21:10:55;97677.22;;;14.59;100.00
79481;BME280;68944;48.262;14.208;2023-08-30T21:13:20;97675.91;;;14.56;100.00
79481;BME280;68944;48.262;14.208;2023-08-30T21:15:46;97676.44;;;14.63;100.00
79481;BME280;68944;48.262;14.208;2023-08-30T21:18:11;97672.97;;;14.58;100.00
79481;BME280;68944;48.262;14.208;2023-08-30T21:20:37;97678.88;;;14.65;100.00
79481;BME280;68944;48.262;14.208;2023-08-30T21:23:02;97691.91;;;14.61;100.00
79481;BME280;68944;48.262;14.208;2023-08-30T21:25:39;97684.69;;;14.56;100.00
79481;BME280;68944;48.262;14.208;2023-08-30T21:28:06;97686.81;;;14.44;100.00
79481;BME280;68944;48.262;14.208;2023-08-30T21:30:37;97689.19;;;14.45;100.00
79481;BME280;68944;48.262;14.208;2023-08-30T21:33:03;97680.13;;;14.41;100.00
79481;BME280;68944;48.262;14.208;2023-08-30T21:35:28;97686.25;;;14.42;100.00
79481;BME280;68944;48.262;14.208;2023-08-30T21:37:54;97690.75;;;14.36;100.00
79481;BME280;68944;48.262;14.208;2023-08-30T21:40:20;97687.03;;;14.42;100.00
79481;BME280;68944;48.262;14.208;2023-08-30T21:42:45;97697.66;;;14.32;100.00
79481;BME280;68944;48.262;14.208;2023-08-30T21:45:11;97695.78;;;14.27;100.00
79481;BME280;68944;48.262;14.208;2023-08-30T21:47:36;97689.91;;;14.25;100.00
79481;BME280;68944;48.262;14.208;2023-08-30T21:50:03;97682.50;;;14.32;100.00
79481;BME280;68944;48.262;14.208;2023-08-30T21:52:29;97683.81;;;14.30;100.00
79481;BME280;68944;48.262;14.208;2023-08-30T21:54:55;97677.94;;;14.28;100.00
79481;BME280;68944;48.262;14.208;2023-08-30T21:57:20;97684.59;;;14.25;100.00
79481;BME280;68944;48.262;14.208;2023-08-30T21:59:46;97689.13;;;14.30;100.00
79481;BME280;68944;48.262;14.208;2023-08-30T22:02:11;97679.28;;;14.30;100.00
79481;BME280;68944;48.262;14.208;2023-08-30T22:04:37;97679.81;;;14.38;100.00
79481;BME280;68944;48.262;14.208;2023-08-30T22:07:06;97688.88;;;14.31;100.00
79481;BME280;68944;48.262;14.208;2023-08-30T22:09:32;97689.66;;;14.27;100.00
79481;BME280;68944;48.262;14.208;2023-08-30T22:11:59;97690.94;;;14.19;100.00
79481;BME280;68944;48.262;14.208;2023-08-30T22:14:25;97694.38;;;14.09;100.00
79481;BME280;68944;48.262;14.208;2023-08-30T22:16:50;97689.28;;;14.07;100.00
79481;BME280;68944;48.262;14.208;2023-08-30T22:19:16;97691.38;;;14.00;100.00
79481;BME280;68944;48.262;14.208;2023-08-30T22:21:43;97688.06;;;13.82;100.00
79481;BME280;68944;48.262;14.208;2023-08-30T22:24:09;97688.91;;;13.88;100.00
79481;BME280;68944;48.262;14.208;2023-08-30T22:26:35;97691.56;;;13.88;100.00
79481;BME280;68944;48.262;14.208;2023-08-30T22:29:01;97682.50;;;13.89;100.00
79481;BME280;68944;48.262;14.208;2023-08-30T22:31:27;97694.06;;;14.05;100.00
79481;BME280;68944;48.262;14.208;2023-08-30T22:33:53;97688.47;;;14.02;100.00
79481;BME280;68944;48.262;14.208;2023-08-30T22:36:18;97687.97;;;14.05;100.00
79481;BME280;68944;48.262;14.208;2023-08-30T22:38:45;97696.38;;;13.91;100.00
79481;BME280;68944;48.262;14.208;2023-08-30T22:41:11;97699.34;;;13.95;100.00
79481;BME280;68944;48.262;14.208;2023-08-30T22:43:36;97693.75;;;13.96;100.00
79481;BME280;68944;48.262;14.208;2023-08-30T22:46:02;97691.09;;;13.96;100.00
79481;BME280;68944;48.262;14.208;2023-08-30T22:48:28;97690.09;;;14.08;100.00
79481;BME280;68944;48.262;14.208;2023-08-30T22:50:54;97692.38;;;13.88;100.00
79481;BME280;68944;48.262;14.208;2023-08-30T22:53:19;97689.88;;;13.71;100.00
79481;BME280;68944;48.262;14.208;2023-08-30T22:55:45;97682.38;;;13.63;100.00
79481;BME280;68944;48.262;14.208;2023-08-30T22:58:11;97686.06;;;13.62;100.00
79481;BME280;68944;48.262;14.208;2023-08-30T23:00:37;97690.72;;;13.77;100.00
79481;BME280;68944;48.262;14.208;2023-08-30T23:03:03;97690.72;;;13.77;100.00
79481;BME280;68944;48.262;14.208;2023-08-30T23:05:31;97695.78;;;13.79;100.00
79481;BME280;68944;48.262;14.208;2023-08-30T23:07:56;97690.72;;;13.77;100.00
79481;BME280;68944;48.262;14.208;2023-08-30T23:10:23;97686.72;;;13.74;100.00
79481;BME280;68944;48.262;14.208;2023-08-30T23:12:51;97690.72;;;13.77;100.00
79481;BME280;68944;48.262;14.208;2023-08-30T23:15:17;97691.69;;;13.65;100.00
79481;BME280;68944;48.262;14.208;2023-08-30T23:17:45;97692.22;;;13.62;100.00
79481;BME280;68944;48.262;14.208;2023-08-30T23:20:12;97698.44;;;13.46;100.00
79481;BME280;68944;48.262;14.208;2023-08-30T23:22:38;97704.47;;;13.36;100.00
79481;BME280;68944;48.262;14.208;2023-08-30T23:25:08;97703.09;;;13.28;100.00
79481;BME280;68944;48.262;14.208;2023-08-30T23:27:35;97702.34;;;13.38;100.00
79481;BME280;68944;48.262;14.208;2023-08-30T23:30:01;97698.59;;;13.34;100.00
79481;BME280;68944;48.262;14.208;2023-08-30T23:32:33;97703.25;;;13.49;100.00
79481;BME280;68944;48.262;14.208;2023-08-30T23:34:59;97697.13;;;13.48;100.00
79481;BME280;68944;48.262;14.208;2023-08-30T23:37:25;97697.66;;;13.50;100.00
79481;BME280;68944;48.262;14.208;2023-08-30T23:39:50;97698.59;;;13.34;100.00
79481;BME280;68944;48.262;14.208;2023-08-30T23:42:16;97696.84;;;13.17;100.00
79481;BME280;68944;48.262;14.208;2023-08-30T23:44:41;97698.41;;;13.13;100.00
79481;BME280;68944;48.262;14.208;2023-08-30T23:47:07;97696.72;;;13.01;100.00
79481;BME280;68944;48.262;14.208;2023-08-30T23:49:32;97704.59;;;12.91;100.00
79481;BME280;68944;48.262;14.208;2023-08-30T23:51:58;97693.44;;;12.94;100.00
79481;BME280;68944;48.262;14.208;2023-08-30T23:54:23;97701.22;;;13.01;100.00
79481;BME280;68944;48.262;14.208;2023-08-30T23:56:49;97684.50;;;13.05;100.00
79481;BME280;68944;48.262;14.208;2023-08-30T23:59:14;97700.63;;;13.21;100.00
